sensor_id;sensor_type;location;lat;lon;timestamp;P1;durP1;ratioP1;P2;durP2;ratioP2
37785;SDS011;23625;48.784;9.336;2023-01-19T00:01:53;26.50;;;11.13;;
37785;SDS011;23625;48.784;9.336;2023-01-19T00:04:18;23.55;;;10.27;;
37785;SDS011;23625;48.784;9.336;2023-01-19T00:06:44;25.17;;;11.05;;
37785;SDS011;23625;48.784;9.336;2023-01-19T00:09:09;29.77;;;9.32;;
37785;SDS011;23625;48.784;9.336;2023-01-19T00:11:35;24.80;;;10.20;;
37785;SDS011;23625;48.784;9.336;2023-01-19T00:14:01;26.85;;;10.38;;
37785;SDS011;23625;48.784;9.336;2023-01-19T00:16:26;22.92;;;10.02;;
37785;SDS011;23625;48.784;9.336;2023-01-19T00:18:52;22.80;;;10.52;;
37785;SDS011;23625;48.784;9.336;2023-01-19T00:21:18;31.35;;;10.63;;
37785;SDS011;23625;48.784;9.336;2023-01-19T00:23:45;26.30;;;10.35;;
37785;SDS011;23625;48.784;9.336;2023-01-19T00:26:11;22.55;;;10.13;;
37785;SDS011;23625;48.784;9.336;2023-01-19T00:28:40;28.65;;;10.82;;
37785;SDS011;23625;48.784;9.336;2023-01-19T00:31:06;22.77;;;10.25;;
37785;SDS011;23625;48.784;9.336;2023-01-19T00:33:31;27.40;;;10.50;;
37785;SDS011;23625;48.784;9.336;2023-01-19T00:35:57;27.13;;;12.18;;
37785;SDS011;23625;48.784;9.336;2023-01-19T00:38:22;24.75;;;10.90;;
37785;SDS011;23625;48.784;9.336;2023-01-19T00:40:48;28.00;;;11.45;;
37785;SDS011;23625;48.784;9.336;2023-01-19T00:43:14;24.77;;;10.73;;
37785;SDS011;23625;48.784;9.336;2023-01-19T00:45:40;26.02;;;12.02;;
37785;SDS011;23625;48.784;9.336;2023-01-19T00:48:06;31.88;;;11.40;;
37785;SDS011;23625;48.784;9.336;2023-01-19T00:50:32;24.05;;;11.65;;
37785;SDS011;23625;48.784;9.336;2023-01-19T00:52:58;32.33;;;11.93;;
37785;SDS011;23625;48.784;9.336;2023-01-19T00:55:28;35.13;;;12.50;;
37785;SDS011;23625;48.784;9.336;2023-01-19T00:57:54;40.30;;;13.73;;
37785;SDS011;23625;48.784;9.336;2023-01-19T01:00:20;28.45;;;12.57;;
37785;SDS011;23625;48.784;9.336;2023-01-19T01:02:47;32.20;;;12.35;;
37785;SDS011;23625;48.784;9.336;2023-01-19T01:05:14;33.53;;;11.93;;
37785;SDS011;23625;48.784;9.336;2023-01-19T01:07:40;30.45;;;12.07;;
37785;SDS011;23625;48.784;9.336;2023-01-19T01:10:12;27.65;;;12.25;;
37785;SDS011;23625;48.784;9.336;2023-01-19T01:12:43;29.45;;;12.98;;
37785;SDS011;23625;48.784;9.336;2023-01-19T01:15:09;36.88;;;13.30;;
37785;SDS011;23625;48.784;9.336;2023-01-19T01:17:37;29.17;;;12.43;;
37785;SDS011;23625;48.784;9.336;2023-01-19T01:20:10;27.17;;;11.77;;
37785;SDS011;23625;48.784;9.336;2023-01-19T01:22:40;24.65;;;11.40;;
37785;SDS011;23625;48.784;9.336;2023-01-19T01:25:09;27.65;;;12.13;;
37785;SDS011;23625;48.784;9.336;2023-01-19T01:27:36;27.48;;;12.18;;
37785;SDS011;23625;48.784;9.336;2023-01-19T01:30:01;28.20;;;12.30;;
37785;SDS011;23625;48.784;9.336;2023-01-19T01:32:30;27.23;;;12.00;;
37785;SDS011;23625;48.784;9.336;2023-01-19T01:34:56;29.95;;;11.75;;
37785;SDS011;23625;48.784;9.336;2023-01-19T01:37:21;28.77;;;11.13;;
37785;SDS011;23625;48.784;9.336;2023-01-19T01:39:47;25.30;;;11.32;;
37785;SDS011;23625;48.784;9.336;2023-01-19T01:42:15;30.92;;;13.05;;
37785;SDS011;23625;48.784;9.336;2023-01-19T01:44:51;25.73;;;11.75;;
37785;SDS011;23625;48.784;9.336;2023-01-19T01:50:01;27.58;;;11.60;;
37785;SDS011;23625;48.784;9.336;2023-01-19T01:56:03;25.52;;;10.77;;
37785;SDS011;23625;48.784;9.336;2023-01-19T01:58:33;25.70;;;11.43;;
37785;SDS011;23625;48.784;9.336;2023-01-19T02:01:00;25.75;;;11.13;;
37785;SDS011;23625;48.784;9.336;2023-01-19T02:03:44;29.08;;;11.15;;
37785;SDS011;23625;48.784;9.336;2023-01-19T02:06:10;26.88;;;11.55;;
37785;SDS011;23625;48.784;9.336;2023-01-19T02:11:27;26.65;;;11.02;;
37785;SDS011;23625;48.784;9.336;2023-01-19T02:14:13;25.67;;;10.38;;
37785;SDS011;23625;48.784;9.336;2023-01-19T02:16:38;29.02;;;11.27;;
37785;SDS011;23625;48.784;9.336;2023-01-19T02:19:06;26.35;;;10.77;;
37785;SDS011;23625;48.784;9.336;2023-01-19T02:21:49;23.15;;;10.15;;
37785;SDS011;23625;48.784;9.336;2023-01-19T02:24:46;27.15;;;10.18;;
37785;SDS011;23625;48.784;9.336;2023-01-19T02:27:13;24.10;;;10.15;;
37785;SDS011;23625;48.784;9.336;2023-01-19T02:29:39;24.55;;;10.43;;
37785;SDS011;23625;48.784;9.336;2023-01-19T02:32:05;28.42;;;11.35;;
37785;SDS011;23625;48.784;9.336;2023-01-19T02:34:31;26.00;;;10.65;;
37785;SDS011;23625;48.784;9.336;2023-01-19T02:36:58;28.40;;;10.82;;
37785;SDS011;23625;48.784;9.336;2023-01-19T02:42:26;22.10;;;10.02;;
37785;SDS011;23625;48.784;9.336;2023-01-19T02:44:57;29.05;;;11.20;;
37785;SDS011;23625;48.784;9.336;2023-01-19T02:47:24;28.13;;;11.20;;
37785;SDS011;23625;48.784;9.336;2023-01-19T02:49:53;29.52;;;11.32;;
37785;SDS011;23625;48.784;9.336;2023-01-19T02:52:22;23.98;;;10.18;;
37785;SDS011;23625;48.784;9.336;2023-01-19T02:54:58;25.55;;;10.63;;
37785;SDS011;23625;48.784;9.336;2023-01-19T03:00:32;30.50;;;9.88;;
37785;SDS011;23625;48.784;9.336;2023-01-19T03:05:56;25.30;;;10.98;;
37785;SDS011;23625;48.784;9.336;2023-01-19T03:08:43;23.77;;;10.52;;
37785;SDS011;23625;48.784;9.336;2023-01-19T03:11:17;23.02;;;10.15;;
37785;SDS011;23625;48.784;9.336;2023-01-19T03:13:44;21.67;;;10.10;;
37785;SDS011;23625;48.784;9.336;2023-01-19T03:16:16;30.20;;;13.82;;
37785;SDS011;23625;48.784;9.336;2023-01-19T03:18:46;23.38;;;10.57;;
37785;SDS011;23625;48.784;9.336;2023-01-19T03:21:18;24.73;;;10.00;;
37785;SDS011;23625;48.784;9.336;2023-01-19T03:23:47;22.45;;;10.45;;
37785;SDS011;23625;48.784;9.336;2023-01-19T03:26:17;33.33;;;11.68;;
37785;SDS011;23625;48.784;9.336;2023-01-19T03:28:45;25.50;;;11.18;;
37785;SDS011;23625;48.784;9.336;2023-01-19T03:31:20;23.35;;;10.32;;
37785;SDS011;23625;48.784;9.336;2023-01-19T03:33:52;24.23;;;10.73;;
37785;SDS011;23625;48.784;9.336;2023-01-19T03:36:41;18.40;;;9.40;;
37785;SDS011;23625;48.784;9.336;2023-01-19T03:39:10;19.80;;;10.18;;
37785;SDS011;23625;48.784;9.336;2023-01-19T03:41:39;23.70;;;10.48;;
37785;SDS011;23625;48.784;9.336;2023-01-19T03:44:06;23.88;;;10.27;;
37785;SDS011;23625;48.784;9.336;2023-01-19T03:46:35;24.05;;;10.80;;
37785;SDS011;23625;48.784;9.336;2023-01-19T03:49:02;22.98;;;10.48;;
37785;SDS011;23625;48.784;9.336;2023-01-19T03:51:27;33.00;;;10.82;;
37785;SDS011;23625;48.784;9.336;2023-01-19T03:57:15;24.95;;;9.73;;
37785;SDS011;23625;48.784;9.336;2023-01-19T03:59:41;26.13;;;11.23;;
37785;SDS011;23625;48.784;9.336;2023-01-19T04:02:06;27.88;;;11.05;;
37785;SDS011;23625;48.784;9.336;2023-01-19T04:04:32;31.48;;;12.05;;
37785;SDS011;23625;48.784;9.336;2023-01-19T04:06:57;24.75;;;10.30;;
37785;SDS011;23625;48.784;9.336;2023-01-19T04:09:23;26.23;;;10.65;;
37785;SDS011;23625;48.784;9.336;2023-01-19T04:11:49;26.20;;;11.32;;
37785;SDS011;23625;48.784;9.336;2023-01-19T04:14:15;27.33;;;11.48;;
37785;SDS011;23625;48.784;9.336;2023-01-19T04:16:41;25.50;;;11.23;;
37785;SDS011;23625;48.784;9.336;2023-01-19T04:19:06;31.13;;;11.15;;
37785;SDS011;23625;48.784;9.336;2023-01-19T04:21:32;26.17;;;11.10;;
37785;SDS011;23625;48.784;9.336;2023-01-19T04:23:57;29.02;;;11.65;;
37785;SDS011;23625;48.784;9.336;2023-01-19T04:26:23;24.23;;;10.80;;
37785;SDS011;23625;48.784;9.336;2023-01-19T04:28:49;25.83;;;12.35;;
37785;SDS011;23625;48.784;9.336;2023-01-19T04:31:15;27.55;;;11.40;;
37785;SDS011;23625;48.784;9.336;2023-01-19T04:33:40;27.60;;;11.02;;
37785;SDS011;23625;48.784;9.336;2023-01-19T04:36:06;24.90;;;10.05;;
37785;SDS011;23625;48.784;9.336;2023-01-19T04:38:32;24.00;;;10.88;;
37785;SDS011;23625;48.784;9.336;2023-01-19T04:40:58;26.05;;;11.43;;
37785;SDS011;23625;48.784;9.336;2023-01-19T04:43:23;24.60;;;10.95;;
37785;SDS011;23625;48.784;9.336;2023-01-19T04:45:49;30.13;;;11.45;;
37785;SDS011;23625;48.784;9.336;2023-01-19T04:48:15;27.95;;;11.45;;
37785;SDS011;23625;48.784;9.336;2023-01-19T04:50:42;29.65;;;11.48;;
37785;SDS011;23625;48.784;9.336;2023-01-19T04:53:08;25.45;;;11.43;;
37785;SDS011;23625;48.784;9.336;2023-01-19T04:55:35;32.30;;;11.73;;
37785;SDS011;23625;48.784;9.336;2023-01-19T04:58:01;27.23;;;11.18;;
37785;SDS011;23625;48.784;9.336;2023-01-19T05:00:27;26.42;;;11.13;;
37785;SDS011;23625;48.784;9.336;2023-01-19T05:02:52;27.50;;;10.43;;
37785;SDS011;23625;48.784;9.336;2023-01-19T05:05:18;24.45;;;10.75;;
37785;SDS011;23625;48.784;9.336;2023-01-19T05:07:44;21.70;;;10.18;;
37785;SDS011;23625;48.784;9.336;2023-01-19T05:10:09;33.17;;;11.02;;
37785;SDS011;23625;48.784;9.336;2023-01-19T05:12:35;25.83;;;11.40;;
37785;SDS011;23625;48.784;9.336;2023-01-19T05:15:01;22.15;;;10.85;;
37785;SDS011;23625;48.784;9.336;2023-01-19T05:17:27;27.65;;;10.63;;
37785;SDS011;23625;48.784;9.336;2023-01-19T05:19:53;35.53;;;10.52;;
37785;SDS011;23625;48.784;9.336;2023-01-19T05:22:18;26.52;;;11.32;;
37785;SDS011;23625;48.784;9.336;2023-01-19T05:24:44;26.65;;;10.45;;
37785;SDS011;23625;48.784;9.336;2023-01-19T05:27:10;25.83;;;11.10;;
37785;SDS011;23625;48.784;9.336;2023-01-19T05:29:35;28.38;;;11.30;;
37785;SDS011;23625;48.784;9.336;2023-01-19T05:32:01;21.95;;;9.07;;
37785;SDS011;23625;48.784;9.336;2023-01-19T05:34:27;22.15;;;10.27;;
37785;SDS011;23625;48.784;9.336;2023-01-19T05:36:52;27.95;;;10.15;;
37785;SDS011;23625;48.784;9.336;2023-01-19T05:39:18;26.15;;;10.77;;
37785;SDS011;23625;48.784;9.336;2023-01-19T05:41:44;34.03;;;10.68;;
37785;SDS011;23625;48.784;9.336;2023-01-19T05:44:09;25.85;;;10.45;;
37785;SDS011;23625;48.784;9.336;2023-01-19T05:46:36;28.05;;;11.00;;
37785;SDS011;23625;48.784;9.336;2023-01-19T05:49:02;28.63;;;11.15;;
37785;SDS011;23625;48.784;9.336;2023-01-19T05:51:29;31.92;;;11.00;;
37785;SDS011;23625;48.784;9.336;2023-01-19T05:53:59;33.75;;;11.88;;
37785;SDS011;23625;48.784;9.336;2023-01-19T05:56:25;31.02;;;12.32;;
37785;SDS011;23625;48.784;9.336;2023-01-19T05:58:51;24.40;;;11.02;;
37785;SDS011;23625;48.784;9.336;2023-01-19T06:01:17;28.63;;;12.30;;
37785;SDS011;23625;48.784;9.336;2023-01-19T06:03:42;31.33;;;12.90;;
37785;SDS011;23625;48.784;9.336;2023-01-19T06:06:08;43.08;;;15.90;;
37785;SDS011;23625;48.784;9.336;2023-01-19T06:08:34;34.15;;;13.65;;
37785;SDS011;23625;48.784;9.336;2023-01-19T06:11:00;51.13;;;16.63;;
37785;SDS011;23625;48.784;9.336;2023-01-19T06:13:25;45.70;;;14.88;;
37785;SDS011;23625;48.784;9.336;2023-01-19T06:16:00;31.02;;;13.25;;
37785;SDS011;23625;48.784;9.336;2023-01-19T06:18:27;27.40;;;11.50;;
37785;SDS011;23625;48.784;9.336;2023-01-19T06:20:53;29.23;;;11.82;;
37785;SDS011;23625;48.784;9.336;2023-01-19T06:23:29;28.25;;;11.63;;
37785;SDS011;23625;48.784;9.336;2023-01-19T06:25:55;27.25;;;10.18;;
37785;SDS011;23625;48.784;9.336;2023-01-19T06:28:21;31.33;;;11.75;;
37785;SDS011;23625;48.784;9.336;2023-01-19T06:30:50;29.38;;;11.77;;
37785;SDS011;23625;48.784;9.336;2023-01-19T06:33:17;36.78;;;15.23;;
37785;SDS011;23625;48.784;9.336;2023-01-19T06:35:44;26.77;;;11.80;;
37785;SDS011;23625;48.784;9.336;2023-01-19T06:38:11;38.38;;;13.45;;
37785;SDS011;23625;48.784;9.336;2023-01-19T06:40:38;33.25;;;11.40;;
37785;SDS011;23625;48.784;9.336;2023-01-19T06:43:04;25.05;;;11.85;;
37785;SDS011;23625;48.784;9.336;2023-01-19T06:45:30;54.25;;;17.85;;
37785;SDS011;23625;48.784;9.336;2023-01-19T06:47:56;38.95;;;14.57;;
37785;SDS011;23625;48.784;9.336;2023-01-19T06:50:21;29.75;;;13.13;;
37785;SDS011;23625;48.784;9.336;2023-01-19T06:52:50;35.72;;;13.32;;
37785;SDS011;23625;48.784;9.336;2023-01-19T06:55:17;50.80;;;18.67;;
37785;SDS011;23625;48.784;9.336;2023-01-19T06:57:42;43.08;;;16.55;;
37785;SDS011;23625;48.784;9.336;2023-01-19T07:00:09;25.73;;;11.18;;
37785;SDS011;23625;48.784;9.336;2023-01-19T07:02:36;32.33;;;13.10;;
37785;SDS011;23625;48.784;9.336;2023-01-19T07:05:04;24.35;;;11.27;;
37785;SDS011;23625;48.784;9.336;2023-01-19T07:07:30;26.73;;;11.82;;
37785;SDS011;23625;48.784;9.336;2023-01-19T07:09:56;26.95;;;10.85;;
37785;SDS011;23625;48.784;9.336;2023-01-19T07:12:22;25.92;;;9.77;;
37785;SDS011;23625;48.784;9.336;2023-01-19T07:14:48;26.25;;;11.00;;
37785;SDS011;23625;48.784;9.336;2023-01-19T07:17:14;22.65;;;9.88;;
37785;SDS011;23625;48.784;9.336;2023-01-19T07:19:39;24.15;;;10.68;;
37785;SDS011;23625;48.784;9.336;2023-01-19T07:22:05;24.38;;;10.50;;
37785;SDS011;23625;48.784;9.336;2023-01-19T07:24:31;24.75;;;11.23;;
37785;SDS011;23625;48.784;9.336;2023-01-19T07:26:58;24.20;;;9.93;;
37785;SDS011;23625;48.784;9.336;2023-01-19T07:29:23;27.77;;;11.13;;
37785;SDS011;23625;48.784;9.336;2023-01-19T07:31:49;64.30;;;21.80;;
37785;SDS011;23625;48.784;9.336;2023-01-19T07:34:18;27.48;;;12.05;;
37785;SDS011;23625;48.784;9.336;2023-01-19T07:36:44;23.92;;;10.27;;
37785;SDS011;23625;48.784;9.336;2023-01-19T07:39:09;20.27;;;9.00;;
37785;SDS011;23625;48.784;9.336;2023-01-19T07:41:35;26.38;;;9.90;;
37785;SDS011;23625;48.784;9.336;2023-01-19T07:44:01;18.88;;;9.20;;
37785;SDS011;23625;48.784;9.336;2023-01-19T07:46:26;20.77;;;9.25;;
37785;SDS011;23625;48.784;9.336;2023-01-19T07:48:52;22.77;;;9.98;;
37785;SDS011;23625;48.784;9.336;2023-01-19T07:51:17;23.08;;;8.82;;
37785;SDS011;23625;48.784;9.336;2023-01-19T07:53:43;16.33;;;8.25;;
37785;SDS011;23625;48.784;9.336;2023-01-19T07:56:10;22.05;;;8.88;;
37785;SDS011;23625;48.784;9.336;2023-01-19T07:58:36;25.95;;;10.07;;
37785;SDS011;23625;48.784;9.336;2023-01-19T08:01:06;19.85;;;8.68;;
37785;SDS011;23625;48.784;9.336;2023-01-19T08:03:33;27.35;;;10.18;;
37785;SDS011;23625;48.784;9.336;2023-01-19T08:05:58;21.75;;;9.63;;
37785;SDS011;23625;48.784;9.336;2023-01-19T08:08:24;20.58;;;7.97;;
37785;SDS011;23625;48.784;9.336;2023-01-19T08:10:50;24.70;;;8.40;;
37785;SDS011;23625;48.784;9.336;2023-01-19T08:13:16;22.73;;;8.60;;
37785;SDS011;23625;48.784;9.336;2023-01-19T08:15:42;22.10;;;8.50;;
37785;SDS011;23625;48.784;9.336;2023-01-19T08:18:08;23.85;;;9.60;;
37785;SDS011;23625;48.784;9.336;2023-01-19T08:20:35;19.92;;;8.65;;
37785;SDS011;23625;48.784;9.336;2023-01-19T08:23:01;20.88;;;8.77;;
37785;SDS011;23625;48.784;9.336;2023-01-19T08:25:35;21.48;;;8.57;;
37785;SDS011;23625;48.784;9.336;2023-01-19T08:28:09;17.73;;;8.02;;
37785;SDS011;23625;48.784;9.336;2023-01-19T08:30:37;21.80;;;8.07;;
37785;SDS011;23625;48.784;9.336;2023-01-19T08:33:04;18.98;;;8.75;;
37785;SDS011;23625;48.784;9.336;2023-01-19T08:35:39;21.58;;;9.48;;
37785;SDS011;23625;48.784;9.336;2023-01-19T08:38:07;20.77;;;8.18;;
37785;SDS011;23625;48.784;9.336;2023-01-19T08:40:34;20.92;;;8.60;;
37785;SDS011;23625;48.784;9.336;2023-01-19T08:43:02;19.60;;;8.75;;
37785;SDS011;23625;48.784;9.336;2023-01-19T08:45:32;26.42;;;9.57;;
37785;SDS011;23625;48.784;9.336;2023-01-19T08:47:58;19.63;;;8.40;;
37785;SDS011;23625;48.784;9.336;2023-01-19T08:50:25;24.25;;;11.40;;
37785;SDS011;23625;48.784;9.336;2023-01-19T08:52:51;23.38;;;10.60;;
37785;SDS011;23625;48.784;9.336;2023-01-19T08:55:19;21.02;;;8.43;;
37785;SDS011;23625;48.784;9.336;2023-01-19T08:57:44;26.77;;;12.25;;
37785;SDS011;23625;48.784;9.336;2023-01-19T09:00:10;16.60;;;7.65;;
37785;SDS011;23625;48.784;9.336;2023-01-19T09:02:36;21.50;;;8.52;;
37785;SDS011;23625;48.784;9.336;2023-01-19T09:05:02;22.05;;;7.30;;
37785;SDS011;23625;48.784;9.336;2023-01-19T09:07:28;16.13;;;6.90;;
37785;SDS011;23625;48.784;9.336;2023-01-19T09:09:54;21.13;;;8.68;;
37785;SDS011;23625;48.784;9.336;2023-01-19T09:12:20;20.25;;;7.90;;
37785;SDS011;23625;48.784;9.336;2023-01-19T09:14:46;18.38;;;7.47;;
37785;SDS011;23625;48.784;9.336;2023-01-19T09:17:11;15.18;;;7.05;;
37785;SDS011;23625;48.784;9.336;2023-01-19T09:19:39;13.27;;;6.43;;
37785;SDS011;23625;48.784;9.336;2023-01-19T09:22:05;18.92;;;6.72;;
37785;SDS011;23625;48.784;9.336;2023-01-19T09:24:30;22.77;;;7.32;;
37785;SDS011;23625;48.784;9.336;2023-01-19T09:26:58;18.98;;;7.68;;
37785;SDS011;23625;48.784;9.336;2023-01-19T09:29:24;19.52;;;7.43;;
37785;SDS011;23625;48.784;9.336;2023-01-19T09:31:50;19.38;;;7.18;;
37785;SDS011;23625;48.784;9.336;2023-01-19T09:34:16;22.45;;;9.93;;
37785;SDS011;23625;48.784;9.336;2023-01-19T09:36:41;17.60;;;6.60;;
37785;SDS011;23625;48.784;9.336;2023-01-19T09:39:07;17.80;;;6.47;;
37785;SDS011;23625;48.784;9.336;2023-01-19T09:41:34;15.45;;;6.82;;
37785;SDS011;23625;48.784;9.336;2023-01-19T09:44:02;12.75;;;6.70;;
37785;SDS011;23625;48.784;9.336;2023-01-19T09:46:38;14.45;;;6.80;;
37785;SDS011;23625;48.784;9.336;2023-01-19T09:51:39;20.20;;;7.20;;
37785;SDS011;23625;48.784;9.336;2023-01-19T09:56:38;14.95;;;7.00;;
37785;SDS011;23625;48.784;9.336;2023-01-19T09:59:23;16.83;;;7.18;;
37785;SDS011;23625;48.784;9.336;2023-01-19T10:02:00;13.98;;;6.40;;
37785;SDS011;23625;48.784;9.336;2023-01-19T10:04:39;14.27;;;6.10;;
37785;SDS011;23625;48.784;9.336;2023-01-19T10:20:15;16.60;;;5.68;;
37785;SDS011;23625;48.784;9.336;2023-01-19T10:22:48;14.68;;;5.55;;
37785;SDS011;23625;48.784;9.336;2023-01-19T10:25:18;12.32;;;5.10;;
37785;SDS011;23625;48.784;9.336;2023-01-19T10:27:47;13.60;;;5.55;;
37785;SDS011;23625;48.784;9.336;2023-01-19T10:30:17;17.42;;;5.95;;
37785;SDS011;23625;48.784;9.336;2023-01-19T10:32:47;11.18;;;5.20;;
37785;SDS011;23625;48.784;9.336;2023-01-19T10:35:14;12.38;;;5.40;;
37785;SDS011;23625;48.784;9.336;2023-01-19T10:37:46;13.32;;;5.75;;
37785;SDS011;23625;48.784;9.336;2023-01-19T10:42:51;12.75;;;5.47;;
37785;SDS011;23625;48.784;9.336;2023-01-19T10:45:17;11.55;;;5.82;;
37785;SDS011;23625;48.784;9.336;2023-01-19T10:47:48;12.90;;;5.43;;
37785;SDS011;23625;48.784;9.336;2023-01-19T10:53:01;14.70;;;5.22;;
37785;SDS011;23625;48.784;9.336;2023-01-19T10:55:30;14.65;;;5.45;;
37785;SDS011;23625;48.784;9.336;2023-01-19T10:57:56;12.27;;;5.65;;
37785;SDS011;23625;48.784;9.336;2023-01-19T11:00:41;11.38;;;5.18;;
37785;SDS011;23625;48.784;9.336;2023-01-19T11:03:23;12.05;;;4.93;;
37785;SDS011;23625;48.784;9.336;2023-01-19T11:05:53;14.15;;;5.10;;
37785;SDS011;23625;48.784;9.336;2023-01-19T11:08:42;12.02;;;5.13;;
37785;SDS011;23625;48.784;9.336;2023-01-19T11:11:09;17.50;;;7.85;;
37785;SDS011;23625;48.784;9.336;2023-01-19T11:13:37;12.93;;;5.63;;
37785;SDS011;23625;48.784;9.336;2023-01-19T11:16:04;8.98;;;4.80;;
37785;SDS011;23625;48.784;9.336;2023-01-19T11:18:37;13.25;;;5.15;;
37785;SDS011;23625;48.784;9.336;2023-01-19T11:21:13;10.82;;;5.20;;
37785;SDS011;23625;48.784;9.336;2023-01-19T11:23:41;10.90;;;4.70;;
37785;SDS011;23625;48.784;9.336;2023-01-19T11:29:27;11.43;;;5.05;;
37785;SDS011;23625;48.784;9.336;2023-01-19T11:36:58;20.77;;;6.85;;
37785;SDS011;23625;48.784;9.336;2023-01-19T11:39:27;21.40;;;7.05;;
37785;SDS011;23625;48.784;9.336;2023-01-19T11:41:55;23.63;;;7.10;;
37785;SDS011;23625;48.784;9.336;2023-01-19T11:44:32;18.15;;;6.22;;
37785;SDS011;23625;48.784;9.336;2023-01-19T11:47:10;19.13;;;7.13;;
37785;SDS011;23625;48.784;9.336;2023-01-19T11:54:48;17.48;;;6.45;;
37785;SDS011;23625;48.784;9.336;2023-01-19T11:57:29;11.63;;;4.53;;
37785;SDS011;23625;48.784;9.336;2023-01-19T11:59:55;21.27;;;8.77;;
37785;SDS011;23625;48.784;9.336;2023-01-19T12:02:28;21.83;;;8.50;;
37785;SDS011;23625;48.784;9.336;2023-01-19T12:07:31;15.05;;;5.35;;
37785;SDS011;23625;48.784;9.336;2023-01-19T12:10:05;24.85;;;8.02;;
37785;SDS011;23625;48.784;9.336;2023-01-19T12:12:37;14.88;;;6.53;;
37785;SDS011;23625;48.784;9.336;2023-01-19T12:17:56;11.10;;;5.57;;
37785;SDS011;23625;48.784;9.336;2023-01-19T12:20:39;14.15;;;5.88;;
37785;SDS011;23625;48.784;9.336;2023-01-19T12:26:18;13.88;;;6.25;;
37785;SDS011;23625;48.784;9.336;2023-01-19T12:29:04;11.13;;;5.85;;
37785;SDS011;23625;48.784;9.336;2023-01-19T12:31:39;12.05;;;5.10;;
37785;SDS011;23625;48.784;9.336;2023-01-19T12:36:49;13.50;;;6.28;;
37785;SDS011;23625;48.784;9.336;2023-01-19T12:39:16;14.10;;;5.85;;
37785;SDS011;23625;48.784;9.336;2023-01-19T12:41:46;13.13;;;5.53;;
37785;SDS011;23625;48.784;9.336;2023-01-19T12:46:40;10.32;;;5.13;;
37785;SDS011;23625;48.784;9.336;2023-01-19T12:51:53;11.38;;;5.53;;
37785;SDS011;23625;48.784;9.336;2023-01-19T12:57:35;12.43;;;5.00;;
37785;SDS011;23625;48.784;9.336;2023-01-19T13:00:06;20.48;;;5.72;;
37785;SDS011;23625;48.784;9.336;2023-01-19T13:05:23;13.65;;;4.60;;
37785;SDS011;23625;48.784;9.336;2023-01-19T13:13:30;9.15;;;5.25;;
37785;SDS011;23625;48.784;9.336;2023-01-19T13:19:27;13.82;;;5.25;;
37785;SDS011;23625;48.784;9.336;2023-01-19T13:24:05;14.50;;;5.82;;
37785;SDS011;23625;48.784;9.336;2023-01-19T13:26:33;15.80;;;5.43;;
37785;SDS011;23625;48.784;9.336;2023-01-19T13:31:36;14.02;;;5.43;;
37785;SDS011;23625;48.784;9.336;2023-01-19T13:34:08;23.23;;;6.38;;
37785;SDS011;23625;48.784;9.336;2023-01-19T13:36:42;11.95;;;4.93;;
37785;SDS011;23625;48.784;9.336;2023-01-19T13:39:15;15.07;;;5.65;;
37785;SDS011;23625;48.784;9.336;2023-01-19T13:41:44;17.00;;;6.95;;
37785;SDS011;23625;48.784;9.336;2023-01-19T13:44:18;13.90;;;5.80;;
37785;SDS011;23625;48.784;9.336;2023-01-19T13:46:50;15.65;;;7.13;;
37785;SDS011;23625;48.784;9.336;2023-01-19T13:52:14;11.52;;;5.55;;
37785;SDS011;23625;48.784;9.336;2023-01-19T13:57:21;20.85;;;9.30;;
37785;SDS011;23625;48.784;9.336;2023-01-19T14:02:29;25.27;;;9.18;;
37785;SDS011;23625;48.784;9.336;2023-01-19T14:04:54;33.22;;;13.65;;
37785;SDS011;23625;48.784;9.336;2023-01-19T14:07:21;22.38;;;10.30;;
37785;SDS011;23625;48.784;9.336;2023-01-19T14:12:45;32.80;;;12.20;;
37785;SDS011;23625;48.784;9.336;2023-01-19T14:15:22;27.65;;;9.65;;
37785;SDS011;23625;48.784;9.336;2023-01-19T14:18:06;25.45;;;8.63;;
37785;SDS011;23625;48.784;9.336;2023-01-19T14:20:38;21.80;;;11.93;;
37785;SDS011;23625;48.784;9.336;2023-01-19T14:23:04;23.25;;;9.88;;
37785;SDS011;23625;48.784;9.336;2023-01-19T14:25:51;20.17;;;9.30;;
37785;SDS011;23625;48.784;9.336;2023-01-19T14:28:26;19.80;;;6.47;;
37785;SDS011;23625;48.784;9.336;2023-01-19T14:33:47;21.00;;;6.28;;
37785;SDS011;23625;48.784;9.336;2023-01-19T14:38:44;26.80;;;13.10;;
37785;SDS011;23625;48.784;9.336;2023-01-19T14:41:24;19.77;;;8.57;;
37785;SDS011;23625;48.784;9.336;2023-01-19T14:43:54;12.25;;;5.35;;
37785;SDS011;23625;48.784;9.336;2023-01-19T14:46:21;58.28;;;19.85;;
37785;SDS011;23625;48.784;9.336;2023-01-19T14:48:49;27.58;;;12.43;;
37785;SDS011;23625;48.784;9.336;2023-01-19T14:51:21;17.60;;;8.88;;
37785;SDS011;23625;48.784;9.336;2023-01-19T14:53:49;16.55;;;5.82;;
37785;SDS011;23625;48.784;9.336;2023-01-19T14:56:30;16.08;;;6.35;;
37785;SDS011;23625;48.784;9.336;2023-01-19T14:58:57;34.08;;;10.90;;
37785;SDS011;23625;48.784;9.336;2023-01-19T15:01:25;24.27;;;8.23;;
37785;SDS011;23625;48.784;9.336;2023-01-19T15:03:55;18.73;;;7.35;;
37785;SDS011;23625;48.784;9.336;2023-01-19T15:06:22;25.23;;;7.90;;
37785;SDS011;23625;48.784;9.336;2023-01-19T15:08:49;24.08;;;9.63;;
37785;SDS011;23625;48.784;9.336;2023-01-19T15:11:33;19.08;;;7.95;;
37785;SDS011;23625;48.784;9.336;2023-01-19T15:13:59;21.05;;;8.35;;
37785;SDS011;23625;48.784;9.336;2023-01-19T15:16:26;15.68;;;7.25;;
37785;SDS011;23625;48.784;9.336;2023-01-19T15:18:54;42.03;;;13.18;;
37785;SDS011;23625;48.784;9.336;2023-01-19T15:21:20;25.02;;;9.48;;
37785;SDS011;23625;48.784;9.336;2023-01-19T15:23:50;31.77;;;10.70;;
37785;SDS011;23625;48.784;9.336;2023-01-19T15:26:18;42.50;;;13.57;;
37785;SDS011;23625;48.784;9.336;2023-01-19T15:28:45;45.35;;;14.45;;
37785;SDS011;23625;48.784;9.336;2023-01-19T15:31:16;27.40;;;10.20;;
37785;SDS011;23625;48.784;9.336;2023-01-19T15:33:43;31.80;;;10.50;;
37785;SDS011;23625;48.784;9.336;2023-01-19T15:36:10;23.58;;;8.98;;
37785;SDS011;23625;48.784;9.336;2023-01-19T15:38:37;27.15;;;9.40;;
37785;SDS011;23625;48.784;9.336;2023-01-19T15:41:07;23.85;;;8.98;;
37785;SDS011;23625;48.784;9.336;2023-01-19T15:43:45;18.45;;;7.35;;
37785;SDS011;23625;48.784;9.336;2023-01-19T15:46:12;26.88;;;10.13;;
37785;SDS011;23625;48.784;9.336;2023-01-19T15:48:39;20.33;;;8.73;;
37785;SDS011;23625;48.784;9.336;2023-01-19T15:51:09;22.30;;;8.55;;
37785;SDS011;23625;48.784;9.336;2023-01-19T15:53:37;13.88;;;6.78;;
37785;SDS011;23625;48.784;9.336;2023-01-19T15:56:03;12.80;;;6.07;;
37785;SDS011;23625;48.784;9.336;2023-01-19T15:58:29;17.33;;;6.38;;
37785;SDS011;23625;48.784;9.336;2023-01-19T16:00:55;47.47;;;15.82;;
37785;SDS011;23625;48.784;9.336;2023-01-19T16:03:22;55.38;;;18.73;;
37785;SDS011;23625;48.784;9.336;2023-01-19T16:05:49;49.58;;;17.20;;
37785;SDS011;23625;48.784;9.336;2023-01-19T16:08:15;34.08;;;11.18;;
37785;SDS011;23625;48.784;9.336;2023-01-19T16:10:41;17.67;;;8.55;;
37785;SDS011;23625;48.784;9.336;2023-01-19T16:13:07;19.08;;;8.82;;
37785;SDS011;23625;48.784;9.336;2023-01-19T16:15:35;22.38;;;9.05;;
37785;SDS011;23625;48.784;9.336;2023-01-19T16:18:01;25.70;;;10.18;;
37785;SDS011;23625;48.784;9.336;2023-01-19T16:20:28;60.83;;;25.23;;
37785;SDS011;23625;48.784;9.336;2023-01-19T16:22:54;23.23;;;10.60;;
37785;SDS011;23625;48.784;9.336;2023-01-19T16:25:19;65.32;;;38.97;;
37785;SDS011;23625;48.784;9.336;2023-01-19T16:27:47;61.80;;;28.55;;